sensor_id;sensor_type;location;lat;lon;timestamp;temperature;humidity
11538;DHT22;50159;49.426;11.182;2023-09-08T00:02:25;15.10;99.90
11538;DHT22;50159;49.426;11.182;2023-09-08T00:04:53;15.00;99.90
11538;DHT22;50159;49.426;11.182;2023-09-08T00:07:20;15.00;99.90
11538;DHT22;50159;49.426;11.182;2023-09-08T00:09:48;14.90;99.90
11538;DHT22;50159;49.426;11.182;2023-09-08T00:12:15;14.90;99.90
11538;DHT22;50159;49.426;11.182;2023-09-08T00:14:42;14.90;99.90
11538;DHT22;50159;49.426;11.182;2023-09-08T00:17:08;14.80;99.90
11538;DHT22;50159;49.426;11.182;2023-09-08T00:19:35;14.80;99.90
11538;DHT22;50159;49.426;11.182;2023-09-08T00:22:03;14.70;99.90
11538;DHT22;50159;49.426;11.182;2023-09-08T00:24:33;14.70;99.90
11538;DHT22;50159;49.426;11.182;2023-09-08T00:26:59;14.70;99.90
11538;DHT22;50159;49.426;11.182;2023-09-08T00:29:26;14.70;99.90
11538;DHT22;50159;49.426;11.182;2023-09-08T00:31:53;14.60;99.90
11538;DHT22;50159;49.426;11.182;2023-09-08T00:34:20;14.60;99.90
11538;DHT22;50159;49.426;11.182;2023-09-08T00:36:46;14.60;99.90
11538;DHT22;50159;49.426;11.182;2023-09-08T00:39:13;14.50;99.90
11538;DHT22;50159;49.426;11.182;2023-09-08T00:41:40;14.50;99.90
11538;DHT22;50159;49.426;11.182;2023-09-08T00:44:06;14.50;99.90
11538;DHT22;50159;49.426;11.182;2023-09-08T00:46:35;14.40;99.90
11538;DHT22;50159;49.426;11.182;2023-09-08T00:49:02;14.40;99.90
11538;DHT22;50159;49.426;11.182;2023-09-08T00:51:29;14.40;99.90
11538;DHT22;50159;49.426;11.182;2023-09-08T00:53:56;14.30;99.90
11538;DHT22;50159;49.426;11.182;2023-09-08T00:56:23;14.30;99.90
11538;DHT22;50159;49.426;11.182;2023-09-08T00:58:50;14.20;99.90
11538;DHT22;50159;49.426;11.182;2023-09-08T01:01:17;14.20;99.90
11538;DHT22;50159;49.426;11.182;2023-09-08T01:03:44;14.20;99.90
11538;DHT22;50159;49.426;11.182;2023-09-08T01:06:12;14.20;99.90
11538;DHT22;50159;49.426;11.182;2023-09-08T01:08:40;14.10;99.90
11538;DHT22;50159;49.426;11.182;2023-09-08T01:11:07;14.10;99.90
11538;DHT22;50159;49.426;11.182;2023-09-08T01:13:33;14.10;99.90
11538;DHT22;50159;49.426;11.182;2023-09-08T01:16:01;14.10;99.90
11538;DHT22;50159;49.426;11.182;2023-09-08T01:18:28;14.00;99.90
11538;DHT22;50159;49.426;11.182;2023-09-08T01:21:19;14.00;99.90
11538;DHT22;50159;49.426;11.182;2023-09-08T01:23:56;14.00;99.90
11538;DHT22;50159;49.426;11.182;2023-09-08T01:26:29;13.90;99.90
11538;DHT22;50159;49.426;11.182;2023-09-08T01:28:59;13.80;99.90
11538;DHT22;50159;49.426;11.182;2023-09-08T01:31:26;13.80;99.90
11538;DHT22;50159;49.426;11.182;2023-09-08T01:33:53;13.80;99.90
11538;DHT22;50159;49.426;11.182;2023-09-08T01:36:19;13.80;99.90
11538;DHT22;50159;49.426;11.182;2023-09-08T01:38:46;13.80;99.90
11538;DHT22;50159;49.426;11.182;2023-09-08T01:41:13;13.70;99.90
11538;DHT22;50159;49.426;11.182;2023-09-08T01:43:40;13.70;99.90
11538;DHT22;50159;49.426;11.182;2023-09-08T01:46:06;13.70;99.90
11538;DHT22;50159;49.426;11.182;2023-09-08T01:48:33;13.60;99.90
11538;DHT22;50159;49.426;11.182;2023-09-08T01:51:00;13.60;99.90
11538;DHT22;50159;49.426;11.182;2023-09-08T01:53:27;13.60;99.90
11538;DHT22;50159;49.426;11.182;2023-09-08T01:55:54;13.50;99.90
11538;DHT22;50159;49.426;11.182;2023-09-08T01:58:21;13.40;99.90
11538;DHT22;50159;49.426;11.182;2023-09-08T02:00:50;13.40;99.90
11538;DHT22;50159;49.426;11.182;2023-09-08T02:03:18;13.40;99.90
11538;DHT22;50159;49.426;11.182;2023-09-08T02:05:45;13.30;99.90
11538;DHT22;50159;49.426;11.182;2023-09-08T02:08:12;13.40;99.90
11538;DHT22;50159;49.426;11.182;2023-09-08T02:10:40;13.30;99.90
11538;DHT22;50159;49.426;11.182;2023-09-08T02:13:07;13.30;99.90
11538;DHT22;50159;49.426;11.182;2023-09-08T02:15:37;13.20;99.90
11538;DHT22;50159;49.426;11.182;2023-09-08T02:18:04;13.10;99.90
11538;DHT22;50159;49.426;11.182;2023-09-08T02:20:31;13.10;99.90
11538;DHT22;50159;49.426;11.182;2023-09-08T02:23:03;13.00;99.90
11538;DHT22;50159;49.426;11.182;2023-09-08T02:25:30;13.00;99.90
11538;DHT22;50159;49.426;11.182;2023-09-08T02:27:56;13.00;99.90
11538;DHT22;50159;49.426;11.182;2023-09-08T02:30:23;13.00;99.90
11538;DHT22;50159;49.426;11.182;2023-09-08T02:32:50;13.00;99.90
11538;DHT22;50159;49.426;11.182;2023-09-08T02:35:17;13.00;99.90
11538;DHT22;50159;49.426;11.182;2023-09-08T02:37:43;12.90;99.90
11538;DHT22;50159;49.426;11.182;2023-09-08T02:40:10;12.90;99.90
11538;DHT22;50159;49.426;11.182;2023-09-08T02:42:37;12.90;99.90
11538;DHT22;50159;49.426;11.182;2023-09-08T02:45:04;12.90;99.90
11538;DHT22;50159;49.426;11.182;2023-09-08T02:47:31;12.80;99.90
11538;DHT22;50159;49.426;11.182;2023-09-08T02:49:57;12.80;99.90
11538;DHT22;50159;49.426;11.182;2023-09-08T02:52:24;12.80;99.90
11538;DHT22;50159;49.426;11.182;2023-09-08T02:54:51;12.70;99.90
11538;DHT22;50159;49.426;11.182;2023-09-08T02:57:17;12.70;99.90
11538;DHT22;50159;49.426;11.182;2023-09-08T02:59:49;12.70;99.90
11538;DHT22;50159;49.426;11.182;2023-09-08T03:02:17;12.70;99.90
11538;DHT22;50159;49.426;11.182;2023-09-08T03:04:44;12.70;99.90
11538;DHT22;50159;49.426;11.182;2023-09-08T03:07:11;12.70;99.90
11538;DHT22;50159;49.426;11.182;2023-09-08T03:09:37;12.60;99.90
11538;DHT22;50159;49.426;11.182;2023-09-08T03:12:04;12.60;99.90
11538;DHT22;50159;49.426;11.182;2023-09-08T03:14:31;12.50;99.90
11538;DHT22;50159;49.426;11.182;2023-09-08T03:16:58;12.50;99.90
11538;DHT22;50159;49.426;11.182;2023-09-08T03:19:24;12.50;99.90
11538;DHT22;50159;49.426;11.182;2023-09-08T03:21:51;12.50;99.90
11538;DHT22;50159;49.426;11.182;2023-09-08T03:24:18;12.40;99.90
11538;DHT22;50159;49.426;11.182;2023-09-08T03:26:44;12.40;99.90
11538;DHT22;50159;49.426;11.182;2023-09-08T03:29:11;12.40;99.90
11538;DHT22;50159;49.426;11.182;2023-09-08T03:31:38;12.30;99.90
11538;DHT22;50159;49.426;11.182;2023-09-08T03:34:06;12.40;99.90
11538;DHT22;50159;49.426;11.182;2023-09-08T03:36:33;12.30;99.90
11538;DHT22;50159;49.426;11.182;2023-09-08T03:39:03;12.40;99.90
11538;DHT22;50159;49.426;11.182;2023-09-08T03:41:29;12.30;99.90
11538;DHT22;50159;49.426;11.182;2023-09-08T03:43:56;12.30;99.90
11538;DHT22;50159;49.426;11.182;2023-09-08T03:46:23;12.30;99.90
11538;DHT22;50159;49.426;11.182;2023-09-08T03:48:52;12.30;99.90
11538;DHT22;50159;49.426;11.182;2023-09-08T03:51:20;12.30;99.90
11538;DHT22;50159;49.426;11.182;2023-09-08T03:53:47;12.20;99.90
11538;DHT22;50159;49.426;11.182;2023-09-08T03:56:14;12.20;99.90
11538;DHT22;50159;49.426;11.182;2023-09-08T03:58:41;12.20;99.90
11538;DHT22;50159;49.426;11.182;2023-09-08T04:01:07;12.10;99.90
11538;DHT22;50159;49.426;11.182;2023-09-08T04:03:34;12.10;99.90
11538;DHT22;50159;49.426;11.182;2023-09-08T04:06:01;12.00;99.90
11538;DHT22;50159;49.426;11.182;2023-09-08T04:08:28;12.00;99.90
11538;DHT22;50159;49.426;11.182;2023-09-08T04:10:54;12.00;99.90
11538;DHT22;50159;49.426;11.182;2023-09-08T04:13:21;12.00;99.90
11538;DHT22;50159;49.426;11.182;2023-09-08T04:15:48;12.00;99.90
11538;DHT22;50159;49.426;11.182;2023-09-08T04:18:15;12.00;99.90
11538;DHT22;50159;49.426;11.182;2023-09-08T04:20:42;12.00;99.90
11538;DHT22;50159;49.426;11.182;2023-09-08T04:23:08;11.90;99.90
11538;DHT22;50159;49.426;11.182;2023-09-08T04:25:35;12.00;99.90
11538;DHT22;50159;49.426;11.182;2023-09-08T04:28:03;11.90;99.90
11538;DHT22;50159;49.426;11.182;2023-09-08T04:30:30;11.90;99.90
11538;DHT22;50159;49.426;11.182;2023-09-08T04:32:56;11.90;99.90
11538;DHT22;50159;49.426;11.182;2023-09-08T04:35:23;11.90;99.90
11538;DHT22;50159;49.426;11.182;2023-09-08T04:37:50;11.80;99.90
11538;DHT22;50159;49.426;11.182;2023-09-08T04:40:16;11.80;99.90
11538;DHT22;50159;49.426;11.182;2023-09-08T04:42:43;11.80;99.90
11538;DHT22;50159;49.426;11.182;2023-09-08T04:45:10;11.80;99.90
11538;DHT22;50159;49.426;11.182;2023-09-08T04:47:37;11.70;99.90
11538;DHT22;50159;49.426;11.182;2023-09-08T04:50:04;11.80;99.90
11538;DHT22;50159;49.426;11.182;2023-09-08T04:52:31;11.70;99.90
11538;DHT22;50159;49.426;11.182;2023-09-08T04:54:58;11.70;99.90
11538;DHT22;50159;49.426;11.182;2023-09-08T04:57:24;11.70;99.90
11538;DHT22;50159;49.426;11.182;2023-09-08T04:59:51;11.70;99.90
11538;DHT22;50159;49.426;11.182;2023-09-08T05:02:18;11.70;99.90
11538;DHT22;50159;49.426;11.182;2023-09-08T05:04:45;11.70;99.90
11538;DHT22;50159;49.426;11.182;2023-09-08T05:07:12;11.70;99.90
11538;DHT22;50159;49.426;11.182;2023-09-08T05:09:39;11.70;99.90
11538;DHT22;50159;49.426;11.182;2023-09-08T05:12:06;11.70;99.90
11538;DHT22;50159;49.426;11.182;2023-09-08T05:14:33;11.80;99.90
11538;DHT22;50159;49.426;11.182;2023-09-08T05:17:00;11.80;99.90
11538;DHT22;50159;49.426;11.182;2023-09-08T05:19:27;11.80;99.90
11538;DHT22;50159;49.426;11.182;2023-09-08T05:21:54;11.80;99.90
11538;DHT22;50159;49.426;11.182;2023-09-08T05:24:21;11.80;99.90
11538;DHT22;50159;49.426;11.182;2023-09-08T05:26:48;11.90;99.90
11538;DHT22;50159;49.426;11.182;2023-09-08T05:29:15;11.90;99.90
11538;DHT22;50159;49.426;11.182;2023-09-08T05:31:42;12.00;99.90
11538;DHT22;50159;49.426;11.182;2023-09-08T05:34:09;12.10;99.90
11538;DHT22;50159;49.426;11.182;2023-09-08T05:36:35;12.10;99.90
11538;DHT22;50159;49.426;11.182;2023-09-08T05:39:04;12.20;99.90
11538;DHT22;50159;49.426;11.182;2023-09-08T05:41:31;12.20;99.90
11538;DHT22;50159;49.426;11.182;2023-09-08T05:44:00;12.30;99.90
11538;DHT22;50159;49.426;11.182;2023-09-08T05:46:27;12.30;99.90
11538;DHT22;50159;49.426;11.182;2023-09-08T05:48:54;12.40;99.90
11538;DHT22;50159;49.426;11.182;2023-09-08T05:51:21;12.50;99.90
11538;DHT22;50159;49.426;11.182;2023-09-08T05:53:49;12.50;99.90
11538;DHT22;50159;49.426;11.182;2023-09-08T05:56:17;12.60;99.90
11538;DHT22;50159;49.426;11.182;2023-09-08T05:58:47;12.70;99.90
11538;DHT22;50159;49.426;11.182;2023-09-08T06:01:15;12.80;99.90
11538;DHT22;50159;49.426;11.182;2023-09-08T06:03:42;12.80;99.90
11538;DHT22;50159;49.426;11.182;2023-09-08T06:06:09;13.00;99.90
11538;DHT22;50159;49.426;11.182;2023-09-08T06:08:36;13.10;99.90
11538;DHT22;50159;49.426;11.182;2023-09-08T06:11:03;13.20;99.90
11538;DHT22;50159;49.426;11.182;2023-09-08T06:13:30;13.30;99.90
11538;DHT22;50159;49.426;11.182;2023-09-08T06:15:57;13.40;99.90
11538;DHT22;50159;49.426;11.182;2023-09-08T06:18:23;13.50;99.90
11538;DHT22;50159;49.426;11.182;2023-09-08T06:20:52;13.60;99.90
11538;DHT22;50159;49.426;11.182;2023-09-08T06:23:20;13.70;99.90
11538;DHT22;50159;49.426;11.182;2023-09-08T06:25:48;14.30;99.90
11538;DHT22;50159;49.426;11.182;2023-09-08T06:28:15;14.00;99.90
11538;DHT22;50159;49.426;11.182;2023-09-08T06:30:41;14.10;99.90
11538;DHT22;50159;49.426;11.182;2023-09-08T06:33:08;14.20;99.90
11538;DHT22;50159;49.426;11.182;2023-09-08T06:35:36;14.40;99.90
11538;DHT22;50159;49.426;11.182;2023-09-08T06:38:08;14.50;99.90
11538;DHT22;50159;49.426;11.182;2023-09-08T06:40:35;14.70;99.90
11538;DHT22;50159;49.426;11.182;2023-09-08T06:43:02;14.80;99.90
11538;DHT22;50159;49.426;11.182;2023-09-08T06:45:29;15.00;99.90
11538;DHT22;50159;49.426;11.182;2023-09-08T06:47:56;15.10;99.90
11538;DHT22;50159;49.426;11.182;2023-09-08T06:50:24;15.30;99.90
11538;DHT22;50159;49.426;11.182;2023-09-08T06:52:50;15.50;99.90
11538;DHT22;50159;49.426;11.182;2023-09-08T06:55:17;15.60;99.90
11538;DHT22;50159;49.426;11.182;2023-09-08T06:57:44;15.80;99.90
11538;DHT22;50159;49.426;11.182;2023-09-08T07:00:12;16.00;99.90
11538;DHT22;50159;49.426;11.182;2023-09-08T07:02:40;16.10;99.90
11538;DHT22;50159;49.426;11.182;2023-09-08T07:05:07;16.30;99.90
11538;DHT22;50159;49.426;11.182;2023-09-08T07:07:35;16.50;99.90
11538;DHT22;50159;49.426;11.182;2023-09-08T07:10:05;16.70;99.90
11538;DHT22;50159;49.426;11.182;2023-09-08T07:12:32;16.90;99.90
11538;DHT22;50159;49.426;11.182;2023-09-08T07:14:59;17.10;99.90
11538;DHT22;50159;49.426;11.182;2023-09-08T07:17:26;17.30;99.90
11538;DHT22;50159;49.426;11.182;2023-09-08T07:19:53;17.50;99.90
11538;DHT22;50159;49.426;11.182;2023-09-08T07:22:20;17.70;99.90
11538;DHT22;50159;49.426;11.182;2023-09-08T07:24:47;17.90;99.90
11538;DHT22;50159;49.426;11.182;2023-09-08T07:27:14;18.10;99.90
11538;DHT22;50159;49.426;11.182;2023-09-08T07:29:41;18.20;99.90
11538;DHT22;50159;49.426;11.182;2023-09-08T07:32:08;18.40;99.90
11538;DHT22;50159;49.426;11.182;2023-09-08T07:34:35;18.60;99.90
11538;DHT22;50159;49.426;11.182;2023-09-08T07:37:02;18.80;99.90
11538;DHT22;50159;49.426;11.182;2023-09-08T07:39:28;19.00;99.90
11538;DHT22;50159;49.426;11.182;2023-09-08T07:41:56;19.10;99.90
11538;DHT22;50159;49.426;11.182;2023-09-08T07:44:27;19.40;99.90
11538;DHT22;50159;49.426;11.182;2023-09-08T07:46:54;19.60;99.90
11538;DHT22;50159;49.426;11.182;2023-09-08T07:49:23;19.80;99.90
11538;DHT22;50159;49.426;11.182;2023-09-08T07:51:50;20.00;99.90
11538;DHT22;50159;49.426;11.182;2023-09-08T07:54:18;20.20;99.90
11538;DHT22;50159;49.426;11.182;2023-09-08T07:56:46;20.40;99.90
11538;DHT22;50159;49.426;11.182;2023-09-08T07:59:13;20.50;99.90
11538;DHT22;50159;49.426;11.182;2023-09-08T08:01:40;20.70;99.90
11538;DHT22;50159;49.426;11.182;2023-09-08T08:04:07;20.90;99.90
11538;DHT22;50159;49.426;11.182;2023-09-08T08:06:35;21.00;99.90
11538;DHT22;50159;49.426;11.182;2023-09-08T08:09:02;21.20;99.90
11538;DHT22;50159;49.426;11.182;2023-09-08T08:11:29;21.40;99.90
11538;DHT22;50159;49.426;11.182;2023-09-08T08:13:57;21.50;99.90
11538;DHT22;50159;49.426;11.182;2023-09-08T08:16:23;21.60;97.40
11538;DHT22;50159;49.426;11.182;2023-09-08T08:18:51;21.70;95.60
11538;DHT22;50159;49.426;11.182;2023-09-08T08:21:18;21.90;93.30
11538;DHT22;50159;49.426;11.182;2023-09-08T08:23:45;22.00;90.80
11538;DHT22;50159;49.426;11.182;2023-09-08T08:26:12;22.10;89.00
11538;DHT22;50159;49.426;11.182;2023-09-08T08:28:39;22.20;87.80
11538;DHT22;50159;49.426;11.182;2023-09-08T08:31:05;22.40;85.10
11538;DHT22;50159;49.426;11.182;2023-09-08T08:33:33;22.60;85.30
11538;DHT22;50159;49.426;11.182;2023-09-08T08:35:59;22.70;85.20
11538;DHT22;50159;49.426;11.182;2023-09-08T08:38:27;22.90;85.80
11538;DHT22;50159;49.426;11.182;2023-09-08T08:40:54;23.00;84.60
11538;DHT22;50159;49.426;11.182;2023-09-08T08:43:21;23.10;80.30
11538;DHT22;50159;49.426;11.182;2023-09-08T08:45:50;23.20;79.70
11538;DHT22;50159;49.426;11.182;2023-09-08T08:48:19;23.30;79.00
11538;DHT22;50159;49.426;11.182;2023-09-08T08:50:47;23.40;77.40
11538;DHT22;50159;49.426;11.182;2023-09-08T08:53:15;23.40;75.10
11538;DHT22;50159;49.426;11.182;2023-09-08T08:55:42;23.60;76.90
11538;DHT22;50159;49.426;11.182;2023-09-08T08:58:09;23.70;75.90
11538;DHT22;50159;49.426;11.182;2023-09-08T09:00:36;23.80;74.40
11538;DHT22;50159;49.426;11.182;2023-09-08T09:03:05;23.90;72.30
11538;DHT22;50159;49.426;11.182;2023-09-08T09:05:41;24.00;74.10
11538;DHT22;50159;49.426;11.182;2023-09-08T09:08:15;24.20;74.70
11538;DHT22;50159;49.426;11.182;2023-09-08T09:10:42;24.30;72.20
11538;DHT22;50159;49.426;11.182;2023-09-08T09:13:09;24.30;70.50
11538;DHT22;50159;49.426;11.182;2023-09-08T09:15:36;24.40;71.20
11538;DHT22;50159;49.426;11.182;2023-09-08T09:18:05;24.60;70.60
11538;DHT22;50159;49.426;11.182;2023-09-08T09:20:32;24.70;69.30
11538;DHT22;50159;49.426;11.182;2023-09-08T09:22:59;24.70;67.60
11538;DHT22;50159;49.426;11.182;2023-09-08T09:25:28;24.90;69.40
11538;DHT22;50159;49.426;11.182;2023-09-08T09:27:57;25.00;68.50
11538;DHT22;50159;49.426;11.182;2023-09-08T09:30:25;25.20;69.10
11538;DHT22;50159;49.426;11.182;2023-09-08T09:32:59;25.30;68.60
11538;DHT22;50159;49.426;11.182;2023-09-08T09:38:13;25.40;64.60
11538;DHT22;50159;49.426;11.182;2023-09-08T09:40:40;25.60;65.80
11538;DHT22;50159;49.426;11.182;2023-09-08T09:43:07;25.70;65.80
11538;DHT22;50159;49.426;11.182;2023-09-08T09:45:36;25.70;63.90
11538;DHT22;50159;49.426;11.182;2023-09-08T09:48:04;25.80;64.40
11538;DHT22;50159;49.426;11.182;2023-09-08T09:50:32;26.00;62.90
11538;DHT22;50159;49.426;11.182;2023-09-08T09:53:08;26.00;62.50
11538;DHT22;50159;49.426;11.182;2023-09-08T09:55:37;26.10;60.90
11538;DHT22;50159;49.426;11.182;2023-09-08T09:58:06;26.20;60.80
11538;DHT22;50159;49.426;11.182;2023-09-08T10:00:34;26.20;57.40
11538;DHT22;50159;49.426;11.182;2023-09-08T10:03:01;26.30;56.70
11538;DHT22;50159;49.426;11.182;2023-09-08T10:05:30;26.30;56.20
11538;DHT22;50159;49.426;11.182;2023-09-08T10:07:58;26.40;57.60
11538;DHT22;50159;49.426;11.182;2023-09-08T10:10:26;26.60;57.90
11538;DHT22;50159;49.426;11.182;2023-09-08T10:12:55;26.70;57.80
11538;DHT22;50159;49.426;11.182;2023-09-08T10:15:24;26.80;57.20
11538;DHT22;50159;49.426;11.182;2023-09-08T10:17:55;26.80;54.40
11538;DHT22;50159;49.426;11.182;2023-09-08T10:20:24;26.90;53.90
11538;DHT22;50159;49.426;11.182;2023-09-08T10:23:12;27.00;54.90
11538;DHT22;50159;49.426;11.182;2023-09-08T10:25:43;27.10;54.50
11538;DHT22;50159;49.426;11.182;2023-09-08T10:28:12;27.20;54.00
11538;DHT22;50159;49.426;11.182;2023-09-08T10:30:39;27.30;54.50
11538;DHT22;50159;49.426;11.182;2023-09-08T10:33:06;27.50;54.50
11538;DHT22;50159;49.426;11.182;2023-09-08T10:35:34;27.50;52.40
11538;DHT22;50159;49.426;11.182;2023-09-08T10:40:51;27.70;52.70
11538;DHT22;50159;49.426;11.182;2023-09-08T10:43:19;27.80;50.70
11538;DHT22;50159;49.426;11.182;2023-09-08T10:45:47;27.90;52.40
11538;DHT22;50159;49.426;11.182;2023-09-08T10:48:14;28.00;50.90
11538;DHT22;50159;49.426;11.182;2023-09-08T10:50:42;28.00;51.90
11538;DHT22;50159;49.426;11.182;2023-09-08T10:53:18;28.10;51.00
11538;DHT22;50159;49.426;11.182;2023-09-08T10:58:40;28.20;48.90
11538;DHT22;50159;49.426;11.182;2023-09-08T11:01:17;28.30;47.90
11538;DHT22;50159;49.426;11.182;2023-09-08T11:03:46;28.30;47.60
11538;DHT22;50159;49.426;11.182;2023-09-08T11:06:16;28.40;47.90
11538;DHT22;50159;49.426;11.182;2023-09-08T11:08:49;28.40;48.10
11538;DHT22;50159;49.426;11.182;2023-09-08T11:11:19;28.50;49.30
11538;DHT22;50159;49.426;11.182;2023-09-08T11:13:46;28.60;48.00
11538;DHT22;50159;49.426;11.182;2023-09-08T11:16:14;28.70;48.40
11538;DHT22;50159;49.426;11.182;2023-09-08T11:18:42;28.70;48.90
11538;DHT22;50159;49.426;11.182;2023-09-08T11:21:11;28.90;47.10
11538;DHT22;50159;49.426;11.182;2023-09-08T11:23:38;28.80;47.40
11538;DHT22;50159;49.426;11.182;2023-09-08T11:26:06;28.90;47.70
11538;DHT22;50159;49.426;11.182;2023-09-08T11:28:36;29.00;47.90
11538;DHT22;50159;49.426;11.182;2023-09-08T11:31:04;29.20;50.20
11538;DHT22;50159;49.426;11.182;2023-09-08T11:33:34;29.40;50.40
11538;DHT22;50159;49.426;11.182;2023-09-08T11:36:12;29.30;47.10
11538;DHT22;50159;49.426;11.182;2023-09-08T11:38:43;29.30;48.10
11538;DHT22;50159;49.426;11.182;2023-09-08T11:41:11;29.40;46.90
11538;DHT22;50159;49.426;11.182;2023-09-08T11:43:38;29.50;46.90
11538;DHT22;50159;49.426;11.182;2023-09-08T11:46:06;29.60;48.40
11538;DHT22;50159;49.426;11.182;2023-09-08T11:48:33;29.70;48.80
11538;DHT22;50159;49.426;11.182;2023-09-08T11:51:00;29.80;47.90
11538;DHT22;50159;49.426;11.182;2023-09-08T11:53:27;29.90;46.90
11538;DHT22;50159;49.426;11.182;2023-09-08T11:55:54;29.80;45.30
11538;DHT22;50159;49.426;11.182;2023-09-08T11:58:22;29.90;44.40
11538;DHT22;50159;49.426;11.182;2023-09-08T12:00:49;30.00;46.20
11538;DHT22;50159;49.426;11.182;2023-09-08T12:03:16;30.00;45.60
11538;DHT22;50159;49.426;11.182;2023-09-08T12:05:52;30.10;44.20
11538;DHT22;50159;49.426;11.182;2023-09-08T12:08:19;30.10;43.40
11538;DHT22;50159;49.426;11.182;2023-09-08T12:10:46;30.20;44.30
11538;DHT22;50159;49.426;11.182;2023-09-08T12:13:13;30.30;42.70
11538;DHT22;50159;49.426;11.182;2023-09-08T12:15:46;30.30;42.50
11538;DHT22;50159;49.426;11.182;2023-09-08T12:18:14;30.40;42.90
11538;DHT22;50159;49.426;11.182;2023-09-08T12:20:44;30.40;43.20
11538;DHT22;50159;49.426;11.182;2023-09-08T12:23:21;30.50;44.10
11538;DHT22;50159;49.426;11.182;2023-09-08T12:25:50;30.50;42.20
11538;DHT22;50159;49.426;11.182;2023-09-08T12:28:21;30.60;42.40
11538;DHT22;50159;49.426;11.182;2023-09-08T12:30:50;30.70;42.30
11538;DHT22;50159;49.426;11.182;2023-09-08T12:33:17;30.80;43.00
11538;DHT22;50159;49.426;11.182;2023-09-08T12:35:47;30.80;40.80
11538;DHT22;50159;49.426;11.182;2023-09-08T12:38:19;30.80;41.40
11538;DHT22;50159;49.426;11.182;2023-09-08T12:40:46;31.00;41.30
11538;DHT22;50159;49.426;11.182;2023-09-08T12:43:13;31.00;40.00
11538;DHT22;50159;49.426;11.182;2023-09-08T12:45:54;30.90;40.50
11538;DHT22;50159;49.426;11.182;2023-09-08T12:48:22;30.80;40.10
11538;DHT22;50159;49.426;11.182;2023-09-08T12:50:49;30.90;39.40
11538;DHT22;50159;49.426;11.182;2023-09-08T12:53:16;31.00;38.30
11538;DHT22;50159;49.426;11.182;2023-09-08T12:55:44;31.00;38.10
11538;DHT22;50159;49.426;11.182;2023-09-08T12:58:11;31.20;38.50
11538;DHT22;50159;49.426;11.182;2023-09-08T13:00:38;31.30;38.20
11538;DHT22;50159;49.426;11.182;2023-09-08T13:03:05;31.30;38.00
11538;DHT22;50159;49.426;11.182;2023-09-08T13:05:31;31.30;36.20
11538;DHT22;50159;49.426;11.182;2023-09-08T13:08:00;31.40;37.30
11538;DHT22;50159;49.426;11.182;2023-09-08T13:10:26;31.60;37.90
11538;DHT22;50159;49.426;11.182;2023-09-08T13:12:53;31.70;37.30
11538;DHT22;50159;49.426;11.182;2023-09-08T13:15:20;31.80;37.70
11538;DHT22;50159;49.426;11.182;2023-09-08T13:17:47;31.90;38.40
11538;DHT22;50159;49.426;11.182;2023-09-08T13:20:13;32.00;37.60
11538;DHT22;50159;49.426;11.182;2023-09-08T13:22:40;32.10;38.60
11538;DHT22;50159;49.426;11.182;2023-09-08T13:25:07;32.00;37.50
11538;DHT22;50159;49.426;11.182;2023-09-08T13:27:34;32.20;39.10
11538;DHT22;50159;49.426;11.182;2023-09-08T13:30:14;32.20;37.80
11538;DHT22;50159;49.426;11.182;2023-09-08T13:32:41;32.20;37.60
11538;DHT22;50159;49.426;11.182;2023-09-08T13:35:09;32.40;36.70
11538;DHT22;50159;49.426;11.182;2023-09-08T13:37:36;32.30;34.20
11538;DHT22;50159;49.426;11.182;2023-09-08T13:40:05;32.40;33.30
11538;DHT22;50159;49.426;11.182;2023-09-08T13:42:35;32.30;34.10
11538;DHT22;50159;49.426;11.182;2023-09-08T13:45:03;32.30;34.60
11538;DHT22;50159;49.426;11.182;2023-09-08T13:47:30;32.20;34.60
11538;DHT22;50159;49.426;11.182;2023-09-08T13:49:59;32.20;35.10
11538;DHT22;50159;49.426;11.182;2023-09-08T13:52:28;32.20;37.10
11538;DHT22;50159;49.426;11.182;2023-09-08T13:54:58;32.30;35.50
11538;DHT22;50159;49.426;11.182;2023-09-08T13:57:28;32.30;35.30
11538;DHT22;50159;49.426;11.182;2023-09-08T13:59:55;32.40;34.80
11538;DHT22;50159;49.426;11.182;2023-09-08T14:02:24;32.30;34.00
11538;DHT22;50159;49.426;11.182;2023-09-08T14:04:54;32.50;34.80
11538;DHT22;50159;49.426;11.182;2023-09-08T14:07:27;32.70;32.60
11538;DHT22;50159;49.426;11.182;2023-09-08T14:10:03;33.40;34.30
11538;DHT22;50159;49.426;11.182;2023-09-08T14:12:53;34.50;32.90
11538;DHT22;50159;49.426;11.182;2023-09-08T14:15:20;36.60;31.60
11538;DHT22;50159;49.426;11.182;2023-09-08T14:17:47;38.20;28.40
11538;DHT22;50159;49.426;11.182;2023-09-08T14:20:14;39.70;27.60
11538;DHT22;50159;49.426;11.182;2023-09-08T14:22:41;40.40;25.60
11538;DHT22;50159;49.426;11.182;2023-09-08T14:27:35;41.30;24.50
11538;DHT22;50159;49.426;11.182;2023-09-08T14:30:04;40.60;25.50
11538;DHT22;50159;49.426;11.182;2023-09-08T14:32:32;39.10;25.90
11538;DHT22;50159;49.426;11.182;2023-09-08T14:34:58;37.70;26.90
11538;DHT22;50159;49.426;11.182;2023-09-08T14:37:25;36.20;28.50
11538;DHT22;50159;49.426;11.182;2023-09-08T14:39:52;35.10;30.40
11538;DHT22;50159;49.426;11.182;2023-09-08T14:42:19;34.30;32.70
11538;DHT22;50159;49.426;11.182;2023-09-08T14:44:45;33.60;33.30
11538;DHT22;50159;49.426;11.182;2023-09-08T14:47:12;33.00;34.30
11538;DHT22;50159;49.426;11.182;2023-09-08T14:49:39;32.70;35.10
11538;DHT22;50159;49.426;11.182;2023-09-08T14:52:06;32.50;35.70
11538;DHT22;50159;49.426;11.182;2023-09-08T14:54:33;32.60;37.10
11538;DHT22;50159;49.426;11.182;2023-09-08T14:57:00;32.50;36.70
11538;DHT22;50159;49.426;11.182;2023-09-08T14:59:26;32.20;37.00
11538;DHT22;50159;49.426;11.182;2023-09-08T15:01:53;31.90;37.30
11538;DHT22;50159;49.426;11.182;2023-09-08T15:04:21;31.60;39.00
11538;DHT22;50159;49.426;11.182;2023-09-08T15:06:47;31.40;38.30
11538;DHT22;50159;49.426;11.182;2023-09-08T15:09:14;31.10;38.10
11538;DHT22;50159;49.426;11.182;2023-09-08T15:11:41;31.10;38.80
11538;DHT22;50159;49.426;11.182;2023-09-08T15:14:09;31.30;38.80
11538;DHT22;50159;49.426;11.182;2023-09-08T15:16:36;31.80;38.10
11538;DHT22;50159;49.426;11.182;2023-09-08T15:19:04;32.70;37.60
11538;DHT22;50159;49.426;11.182;2023-09-08T15:21:30;33.80;36.10
11538;DHT22;50159;49.426;11.182;2023-09-08T15:23:59;34.60;35.20
11538;DHT22;50159;49.426;11.182;2023-09-08T15:26:26;34.70;32.70
11538;DHT22;50159;49.426;11.182;2023-09-08T15:28:52;34.30;32.30
11538;DHT22;50159;49.426;11.182;2023-09-08T15:31:19;33.80;33.60